createdAt,value
2023-04-21T00:00:44.575Z,981.00
2023-04-21T00:01:44.577Z,980.97
2023-04-21T00:02:44.722Z,980.96
2023-04-21T00:03:44.689Z,980.98
2023-04-21T00:04:44.639Z,980.92
2023-04-21T00:05:44.603Z,980.94
2023-04-21T00:06:44.519Z,980.90
2023-04-21T00:07:44.515Z,980.96
2023-04-21T00:08:44.502Z,980.98
2023-04-21T00:09:44.478Z,981.05
2023-04-21T00:10:44.462Z,981.03
2023-04-21T00:11:44.470Z,981.02
2023-04-21T00:12:44.487Z,981.03
2023-04-21T00:13:44.432Z,981.05
2023-04-21T00:14:44.455Z,981.00
2023-04-21T00:15:44.472Z,981.01
2023-04-21T00:16:44.391Z,981.04
2023-04-21T00:17:44.443Z,980.99
2023-04-21T00:18:44.400Z,981.00
2023-04-21T00:19:44.371Z,980.98
2023-04-21T00:20:44.372Z,981.00
2023-04-21T00:21:44.340Z,981.00
2023-04-21T00:22:44.346Z,981.01
2023-04-21T00:23:44.351Z,980.98
2023-04-21T00:24:44.336Z,980.96
2023-04-21T00:25:44.321Z,980.93
2023-04-21T00:26:44.309Z,980.91
2023-04-21T00:27:44.302Z,980.93
2023-04-21T00:28:44.318Z,980.96
2023-04-21T00:29:44.279Z,980.92
2023-04-21T00:30:44.270Z,980.91
2023-04-21T00:31:44.282Z,980.96
2023-04-21T00:32:44.315Z,980.96
2023-04-21T00:33:44.237Z,980.98
2023-04-21T00:34:44.268Z,980.91
2023-04-21T00:35:44.205Z,980.99
2023-04-21T00:36:44.229Z,980.96
2023-04-21T00:37:44.189Z,980.92
2023-04-21T00:38:44.201Z,980.95
2023-04-21T00:39:44.184Z,980.89
2023-04-21T00:40:44.163Z,980.87
2023-04-21T00:41:44.202Z,980.80
2023-04-21T00:42:44.128Z,980.83
2023-04-21T00:43:44.120Z,980.85
2023-04-21T00:44:44.098Z,980.86
2023-04-21T00:45:44.111Z,980.84
2023-04-21T00:46:44.166Z,980.83
2023-04-21T00:47:44.164Z,980.86
2023-04-21T00:48:44.060Z,980.83
2023-04-21T00:49:44.053Z,980.77
2023-04-21T00:50:44.050Z,980.79
2023-04-21T00:51:44.101Z,980.78
2023-04-21T00:52:44.045Z,980.78
2023-04-21T00:53:44.075Z,980.79
2023-04-21T00:54:44.014Z,980.82
2023-04-21T00:55:44.002Z,980.78
2023-04-21T00:56:43.974Z,980.77
2023-04-21T00:57:43.981Z,980.72
2023-04-21T00:58:43.972Z,980.72
2023-04-21T00:59:43.948Z,980.70
2023-04-21T01:00:43.986Z,980.63
2023-04-21T01:01:43.947Z,980.71
2023-04-21T01:02:44.032Z,980.73
2023-04-21T01:03:44.051Z,980.71
2023-04-21T01:04:43.917Z,980.69
2023-04-21T01:05:43.893Z,980.78
2023-04-21T01:06:43.913Z,980.72
2023-04-21T01:07:43.877Z,980.71
2023-04-21T01:08:43.855Z,980.71
2023-04-21T01:09:43.846Z,980.74
2023-04-21T01:10:43.840Z,980.70
2023-04-21T01:11:43.835Z,980.72
2023-04-21T01:12:43.815Z,980.72
2023-04-21T01:13:43.798Z,980.65
2023-04-21T01:14:43.805Z,980.60
2023-04-21T01:15:43.795Z,980.62
2023-04-21T01:16:43.812Z,980.61
2023-04-21T01:17:43.803Z,980.61
2023-04-21T01:18:43.746Z,980.59
2023-04-21T01:19:43.755Z,980.61
2023-04-21T01:20:43.732Z,980.57
2023-04-21T01:21:43.709Z,980.55
2023-04-21T01:22:43.699Z,980.52
2023-04-21T01:23:43.682Z,980.57
2023-04-21T01:24:43.690Z,980.52
2023-04-21T01:25:43.705Z,980.52
2023-04-21T01:26:43.672Z,980.51
2023-04-21T01:27:43.645Z,980.52
2023-04-21T01:28:43.633Z,980.56
2023-04-21T01:29:43.616Z,980.53
2023-04-21T01:30:43.636Z,980.55
2023-04-21T01:31:43.613Z,980.61
2023-04-21T01:32:43.655Z,980.61
2023-04-21T01:33:43.585Z,980.57
2023-04-21T01:34:43.577Z,980.64
2023-04-21T01:35:43.550Z,980.60
2023-04-21T01:36:43.555Z,980.61
2023-04-21T01:37:43.544Z,980.63
2023-04-21T01:38:43.566Z,980.60
2023-04-21T01:39:43.517Z,980.61
2023-04-21T01:40:43.499Z,980.66
2023-04-21T01:41:43.493Z,980.64
2023-04-21T01:42:43.506Z,980.65
2023-04-21T01:43:43.472Z,980.65
2023-04-21T01:44:43.474Z,980.61
2023-04-21T01:45:43.510Z,980.61
2023-04-21T01:46:43.449Z,980.76
2023-04-21T01:47:43.460Z,980.76
2023-04-21T01:48:43.412Z,980.67
2023-04-21T01:49:43.411Z,980.69
2023-04-21T01:50:43.440Z,980.58
2023-04-21T01:51:43.405Z,980.57
2023-04-21T01:52:43.391Z,980.59
2023-04-21T01:53:43.374Z,980.72
2023-04-21T01:54:43.373Z,980.72
2023-04-21T01:55:43.349Z,980.71
2023-04-21T01:56:43.368Z,980.69
2023-04-21T01:57:43.360Z,980.74
2023-04-21T01:58:43.317Z,980.77
2023-04-21T01:59:43.338Z,980.79
2023-04-21T02:00:43.313Z,980.78
2023-04-21T02:01:43.317Z,980.74
2023-04-21T02:02:43.471Z,980.77
2023-04-21T02:03:43.519Z,980.78
2023-04-21T02:04:43.358Z,980.71
2023-04-21T02:05:43.293Z,980.77
2023-04-21T02:06:43.225Z,980.74
2023-04-21T02:07:43.251Z,980.75
2023-04-21T02:08:43.225Z,980.75
2023-04-21T02:09:43.199Z,980.74
2023-04-21T02:10:43.193Z,980.78
2023-04-21T02:11:43.208Z,980.74
2023-04-21T02:12:43.177Z,980.73
2023-04-21T02:13:44.123Z,980.73
2023-04-21T02:14:43.167Z,980.75
2023-04-21T02:15:43.158Z,980.77
2023-04-21T02:16:43.196Z,980.72
2023-04-21T02:17:43.239Z,980.74
2023-04-21T02:18:43.118Z,980.74
2023-04-21T02:19:43.094Z,980.71
2023-04-21T02:20:43.093Z,980.70
2023-04-21T02:21:43.071Z,980.68
2023-04-21T02:22:43.094Z,980.65
2023-04-21T02:23:43.061Z,980.63
2023-04-21T02:24:43.062Z,980.67
2023-04-21T02:25:43.041Z,980.69
2023-04-21T02:26:43.004Z,980.72
2023-04-21T02:27:43.030Z,980.75
2023-04-21T02:28:42.993Z,980.68
2023-04-21T02:29:42.998Z,980.71
2023-04-21T02:30:42.962Z,980.73
2023-04-21T02:31:56.585Z,980.70
2023-04-21T02:32:44.085Z,980.69
2023-04-21T02:33:42.955Z,980.65
2023-04-21T02:34:42.937Z,980.66
2023-04-21T02:35:42.930Z,980.61
2023-04-21T02:36:42.932Z,980.61
2023-04-21T02:37:42.912Z,980.56
2023-04-21T02:38:42.906Z,980.61
2023-04-21T02:39:42.904Z,980.65
2023-04-21T02:40:42.877Z,980.62
2023-04-21T02:41:42.860Z,980.60
2023-04-21T02:42:42.853Z,980.66
2023-04-21T02:43:42.857Z,980.69
2023-04-21T02:44:42.853Z,980.69
2023-04-21T02:45:42.822Z,980.75
2023-04-21T02:46:42.844Z,980.79
2023-04-21T02:47:42.862Z,980.78
2023-04-21T02:48:42.806Z,980.76
2023-04-21T02:49:42.784Z,980.72
2023-04-21T02:50:42.767Z,980.80
2023-04-21T02:51:42.759Z,980.76
2023-04-21T02:52:42.742Z,980.77
2023-04-21T02:53:42.724Z,980.76
2023-04-21T02:54:42.731Z,980.74
2023-04-21T02:55:42.711Z,980.73
2023-04-21T02:56:42.711Z,980.73
2023-04-21T02:57:42.682Z,980.76
2023-04-21T02:58:42.699Z,980.81
2023-04-21T02:59:42.683Z,980.84
2023-04-21T03:00:42.671Z,980.80
2023-04-21T03:01:42.665Z,980.84
2023-04-21T03:02:42.806Z,980.79
2023-04-21T03:03:42.710Z,980.82
2023-04-21T03:04:42.737Z,980.79
2023-04-21T03:05:42.593Z,980.79
2023-04-21T03:06:42.607Z,980.74
2023-04-21T03:07:42.600Z,980.69
2023-04-21T03:08:42.566Z,980.71
2023-04-21T03:09:42.569Z,980.71
2023-04-21T03:10:42.547Z,980.66
2023-04-21T03:11:42.525Z,980.69
2023-04-21T03:12:42.531Z,980.73
2023-04-21T03:13:42.547Z,980.67
2023-04-21T03:14:42.553Z,980.73
2023-04-21T03:15:42.487Z,980.65
2023-04-21T03:16:42.568Z,980.64
2023-04-21T03:17:42.532Z,980.67
2023-04-21T03:18:42.472Z,980.64
2023-04-21T03:19:42.457Z,980.61
2023-04-21T03:20:42.450Z,980.57
2023-04-21T03:21:42.435Z,980.52
2023-04-21T03:22:42.415Z,980.53
2023-04-21T03:23:42.424Z,980.51
2023-04-21T03:24:42.436Z,980.45
2023-04-21T03:25:42.454Z,980.44
2023-04-21T03:26:42.400Z,980.46
2023-04-21T03:27:42.360Z,980.41
2023-04-21T03:28:42.358Z,980.43
2023-04-21T03:29:42.343Z,980.39
2023-04-21T03:30:42.359Z,980.43
2023-04-21T03:31:42.420Z,980.45
2023-04-21T03:32:42.358Z,980.40
2023-04-21T03:33:42.392Z,980.38
2023-04-21T03:34:42.652Z,980.39
2023-04-21T03:35:43.071Z,980.48
2023-04-21T03:36:43.618Z,980.46
2023-04-21T03:37:42.287Z,980.53
2023-04-21T03:38:42.249Z,980.52
2023-04-21T03:39:42.259Z,980.54
2023-04-21T03:40:42.252Z,980.60
2023-04-21T03:41:42.237Z,980.54
2023-04-21T03:42:42.214Z,980.53
2023-04-21T03:43:42.208Z,980.53
2023-04-21T03:44:42.196Z,980.58
2023-04-21T03:45:42.257Z,980.52
2023-04-21T03:46:42.307Z,980.52
2023-04-21T03:47:42.215Z,980.53
2023-04-21T03:48:42.296Z,980.54
2023-04-21T03:49:42.139Z,980.53
2023-04-21T03:50:42.117Z,980.53
2023-04-21T03:51:42.124Z,980.51
2023-04-21T03:52:42.099Z,980.51
2023-04-21T03:53:42.104Z,980.52
2023-04-21T03:54:42.083Z,980.55
2023-04-21T03:55:42.067Z,980.56
2023-04-21T03:56:42.045Z,980.58
2023-04-21T03:57:42.050Z,980.59
2023-04-21T03:58:42.029Z,980.58
2023-04-21T03:59:42.054Z,980.63
2023-04-21T04:00:42.015Z,980.67
2023-04-21T04:01:42.008Z,980.65
2023-04-21T04:02:42.192Z,980.66
2023-04-21T04:03:42.068Z,980.70
2023-04-21T04:04:42.170Z,980.73
2023-04-21T04:05:42.149Z,980.63
2023-04-21T04:06:41.957Z,980.63
2023-04-21T04:07:42.023Z,980.67
2023-04-21T04:08:41.937Z,980.63
2023-04-21T04:09:41.923Z,980.68
2023-04-21T04:10:41.919Z,980.66
2023-04-21T04:11:41.889Z,980.65
2023-04-21T04:12:41.903Z,980.59
2023-04-21T04:13:41.887Z,980.58
2023-04-21T04:14:41.870Z,980.62
2023-04-21T04:15:41.883Z,980.57
2023-04-21T04:16:41.855Z,980.60
2023-04-21T04:17:41.880Z,980.64
2023-04-21T04:18:41.832Z,980.58
2023-04-21T04:19:41.820Z,980.59
2023-04-21T04:20:41.805Z,980.55
2023-04-21T04:21:42.488Z,980.56
2023-04-21T04:22:41.821Z,980.60
2023-04-21T04:23:42.856Z,980.63
2023-04-21T04:24:41.776Z,980.64
2023-04-21T04:25:42.468Z,980.59
2023-04-21T04:26:41.752Z,980.64
2023-04-21T04:27:42.741Z,980.64
2023-04-21T04:28:41.780Z,980.69
2023-04-21T04:29:42.440Z,980.67
2023-04-21T04:30:41.693Z,980.71
2023-04-21T04:31:42.580Z,980.65
2023-04-21T04:32:41.869Z,980.68
2023-04-21T04:33:42.454Z,980.75
2023-04-21T04:34:41.664Z,980.75
2023-04-21T04:35:41.684Z,980.71
2023-04-21T04:36:41.638Z,980.75
2023-04-21T04:37:41.634Z,980.76
2023-04-21T04:38:41.620Z,980.79
2023-04-21T04:39:41.586Z,980.75
2023-04-21T04:40:41.599Z,980.69
2023-04-21T04:41:41.591Z,980.60
2023-04-21T04:42:41.683Z,980.62
2023-04-21T04:43:41.572Z,980.55
2023-04-21T04:44:41.806Z,980.60
2023-04-21T04:45:41.542Z,980.64
2023-04-21T04:46:41.526Z,980.66
2023-04-21T04:47:41.552Z,980.66
2023-04-21T04:48:41.503Z,980.69
2023-04-21T04:49:41.496Z,980.75
2023-04-21T04:50:41.467Z,980.76
2023-04-21T04:51:41.457Z,980.77
2023-04-21T04:52:41.459Z,980.70
2023-04-21T04:53:41.461Z,980.72
2023-04-21T04:54:41.428Z,980.70
2023-04-21T04:55:41.439Z,980.73
2023-04-21T04:56:41.407Z,980.73
2023-04-21T04:57:41.460Z,980.77
2023-04-21T04:58:41.398Z,980.71
2023-04-21T04:59:41.378Z,980.79
2023-04-21T05:00:41.388Z,980.79
2023-04-21T05:01:41.380Z,980.83
2023-04-21T05:02:41.562Z,980.89
2023-04-21T05:03:41.434Z,980.86
2023-04-21T05:04:41.398Z,980.85
2023-04-21T05:05:41.322Z,980.87
2023-04-21T05:06:41.297Z,980.87
2023-04-21T05:07:41.308Z,980.89
2023-04-21T05:08:41.273Z,980.90
2023-04-21T05:09:41.289Z,980.88
2023-04-21T05:10:41.251Z,980.92
2023-04-21T05:11:41.264Z,980.97
2023-04-21T05:12:41.258Z,980.97
2023-04-21T05:13:41.241Z,980.95
2023-04-21T05:14:41.222Z,980.97
2023-04-21T05:15:41.218Z,981.00
2023-04-21T05:16:41.220Z,981.03
2023-04-21T05:17:41.230Z,981.04
2023-04-21T05:18:41.195Z,981.03
2023-04-21T05:19:41.180Z,981.07
2023-04-21T05:20:41.183Z,981.10
2023-04-21T05:21:41.161Z,981.16
2023-04-21T05:22:41.122Z,981.08
2023-04-21T05:23:41.125Z,981.09
2023-04-21T05:24:41.109Z,981.04
2023-04-21T05:25:41.128Z,981.05
2023-04-21T05:26:41.096Z,981.02
2023-04-21T05:27:41.082Z,981.07
2023-04-21T05:28:41.071Z,981.07
2023-04-21T05:29:41.064Z,981.02
2023-04-21T05:30:41.058Z,981.08
2023-04-21T05:31:41.115Z,981.04
2023-04-21T05:32:41.030Z,981.08
2023-04-21T05:33:41.031Z,981.08
2023-04-21T05:34:41.008Z,981.09
2023-04-21T05:35:41.002Z,981.11
2023-04-21T05:36:40.987Z,981.11
2023-04-21T05:37:40.986Z,981.14
2023-04-21T05:38:40.970Z,981.15
2023-04-21T05:39:40.967Z,981.12
2023-04-21T05:40:40.957Z,981.20
2023-04-21T05:41:40.946Z,981.18
2023-04-21T05:42:40.918Z,981.22
2023-04-21T05:43:40.912Z,981.16
2023-04-21T05:44:40.891Z,981.27
2023-04-21T05:45:40.927Z,981.25
2023-04-21T05:46:40.915Z,981.28
2023-04-21T05:47:40.885Z,981.25
2023-04-21T05:48:40.849Z,981.19
2023-04-21T05:49:40.864Z,981.19
2023-04-21T05:50:40.859Z,981.23
2023-04-21T05:51:40.838Z,981.10
2023-04-21T05:52:40.813Z,981.18
2023-04-21T05:53:40.790Z,981.13
2023-04-21T05:54:40.798Z,981.17
2023-04-21T05:55:40.787Z,981.16
2023-04-21T05:56:40.766Z,981.14
2023-04-21T05:57:40.753Z,981.10
2023-04-21T05:58:40.741Z,981.11
2023-04-21T05:59:40.739Z,981.12
2023-04-21T06:00:40.735Z,981.10
2023-04-21T06:01:40.733Z,980.98
2023-04-21T06:02:40.873Z,980.89
2023-04-21T06:03:40.933Z,980.95
2023-04-21T06:04:40.823Z,980.93
2023-04-21T06:05:40.766Z,980.94
2023-04-21T06:06:40.657Z,980.94
2023-04-21T06:07:40.656Z,980.94
2023-04-21T06:08:40.630Z,980.94
2023-04-21T06:09:40.638Z,980.97
2023-04-21T06:10:40.641Z,980.90
2023-04-21T06:11:40.623Z,980.86
2023-04-21T06:12:40.599Z,980.92
2023-04-21T06:13:43.000Z,980.84
2023-04-21T06:14:40.578Z,980.85
2023-04-21T06:15:40.581Z,980.84
2023-04-21T06:16:40.627Z,980.81
2023-04-21T06:17:40.578Z,980.83
2023-04-21T06:18:40.544Z,980.77
2023-04-21T06:19:41.881Z,980.80
2023-04-21T06:20:40.520Z,980.82
2023-04-21T06:21:40.515Z,980.84
2023-04-21T06:22:40.500Z,980.88
2023-04-21T06:23:40.483Z,980.80
2023-04-21T06:24:40.479Z,980.82
2023-04-21T06:25:40.479Z,980.74
2023-04-21T06:26:40.450Z,980.79
2023-04-21T06:27:40.448Z,980.81
2023-04-21T06:28:40.450Z,980.85
2023-04-21T06:29:40.452Z,980.83
2023-04-21T06:30:40.410Z,980.94
2023-04-21T06:31:40.446Z,980.99
2023-04-21T06:32:40.455Z,980.99
2023-04-21T06:33:40.360Z,980.96
2023-04-21T06:34:40.367Z,980.85
2023-04-21T06:35:40.371Z,980.87
2023-04-21T06:36:40.358Z,980.88
2023-04-21T06:37:40.334Z,980.91
2023-04-21T06:38:40.452Z,980.86
2023-04-21T06:39:40.321Z,980.95
2023-04-21T06:40:40.310Z,980.90
2023-04-21T06:41:40.319Z,980.90
2023-04-21T06:42:40.282Z,980.83
2023-04-21T06:43:40.276Z,980.91
2023-04-21T06:44:40.266Z,980.88
2023-04-21T06:45:40.255Z,980.92
2023-04-21T06:46:40.290Z,981.02
2023-04-21T06:47:40.244Z,981.01
2023-04-21T06:48:40.229Z,981.01
2023-04-21T06:49:40.222Z,981.03
2023-04-21T06:50:40.205Z,981.00
2023-04-21T06:51:40.180Z,980.94
2023-04-21T06:52:40.189Z,980.92
2023-04-21T06:53:40.169Z,980.92
2023-04-21T06:54:40.153Z,980.89
2023-04-21T06:55:40.143Z,980.85
2023-04-21T06:56:40.139Z,980.89
2023-04-21T06:57:40.111Z,980.87
2023-04-21T06:58:40.109Z,980.87
2023-04-21T06:59:40.110Z,980.87
2023-04-21T07:00:40.165Z,980.89
2023-04-21T07:01:40.170Z,980.96
2023-04-21T07:02:40.105Z,980.88
2023-04-21T07:03:40.217Z,980.84
2023-04-21T07:04:40.086Z,980.78
2023-04-21T07:05:40.047Z,980.81
2023-04-21T07:06:40.072Z,980.83
2023-04-21T07:07:40.016Z,980.81
2023-04-21T07:08:40.088Z,980.80
2023-04-21T07:09:40.014Z,980.81
2023-04-21T07:10:39.999Z,980.85
2023-04-21T07:11:39.976Z,980.84
2023-04-21T07:12:39.987Z,980.90
2023-04-21T07:13:39.992Z,980.94
2023-04-21T07:14:39.953Z,980.87
2023-04-21T07:15:39.944Z,980.86
2023-04-21T07:16:39.943Z,980.84
2023-04-21T07:17:39.913Z,980.82
2023-04-21T07:18:39.905Z,980.82
2023-04-21T07:19:39.891Z,980.84
2023-04-21T07:20:39.888Z,980.83
2023-04-21T07:21:39.878Z,980.78
2023-04-21T07:22:39.865Z,980.75
2023-04-21T07:23:39.850Z,980.75
2023-04-21T07:24:39.849Z,980.72
2023-04-21T07:25:39.840Z,980.70
2023-04-21T07:26:39.827Z,980.66
2023-04-21T07:27:39.854Z,980.75
2023-04-21T07:28:39.808Z,980.69
2023-04-21T07:29:39.787Z,980.69
2023-04-21T07:30:39.813Z,980.68
2023-04-21T07:31:39.862Z,980.70
2023-04-21T07:32:39.780Z,980.71
2023-04-21T07:33:39.745Z,980.75
2023-04-21T07:34:39.752Z,980.73
2023-04-21T07:35:39.724Z,980.75
2023-04-21T07:36:39.720Z,980.69
2023-04-21T07:37:39.697Z,980.63
2023-04-21T07:38:39.719Z,980.59
2023-04-21T07:39:39.664Z,980.63
2023-04-21T07:40:39.696Z,980.63
2023-04-21T07:41:39.667Z,980.58
2023-04-21T07:42:39.658Z,980.62
2023-04-21T07:43:39.639Z,980.51
2023-04-21T07:44:39.662Z,980.62
2023-04-21T07:45:39.618Z,980.60
2023-04-21T07:46:39.666Z,980.59
2023-04-21T07:47:39.662Z,980.62
2023-04-21T07:48:39.610Z,980.64
2023-04-21T07:49:39.589Z,980.53
2023-04-21T07:50:39.570Z,980.57
2023-04-21T07:51:39.820Z,980.56
2023-04-21T07:52:39.535Z,980.55
2023-04-21T07:53:39.546Z,980.55
2023-04-21T07:54:39.544Z,980.58
2023-04-21T07:55:39.492Z,980.53
2023-04-21T07:56:39.489Z,980.57
2023-04-21T07:57:39.513Z,980.53
2023-04-21T07:58:39.511Z,980.56
2023-04-21T07:59:39.471Z,980.46
2023-04-21T08:00:39.483Z,980.46
2023-04-21T08:01:39.457Z,980.44
2023-04-21T08:02:39.482Z,980.45
2023-04-21T08:03:39.602Z,980.46
2023-04-21T08:04:39.735Z,980.51
2023-04-21T08:05:41.293Z,980.54
2023-04-21T08:06:39.600Z,980.49
2023-04-21T08:07:39.406Z,980.50
2023-04-21T08:08:39.400Z,980.46
2023-04-21T08:09:39.364Z,980.49
2023-04-21T08:10:39.351Z,980.53
2023-04-21T08:11:39.347Z,980.47
2023-04-21T08:12:39.591Z,980.48
2023-04-21T08:13:39.328Z,980.48
2023-04-21T08:14:39.323Z,980.45
2023-04-21T08:15:39.291Z,980.53
2023-04-21T08:16:39.374Z,980.47
2023-04-21T08:17:39.287Z,980.51
2023-04-21T08:18:39.251Z,980.45
2023-04-21T08:19:39.250Z,980.46
2023-04-21T08:20:39.251Z,980.47
2023-04-21T08:21:39.245Z,980.50
2023-04-21T08:22:39.279Z,980.45
2023-04-21T08:23:39.221Z,980.51
2023-04-21T08:24:39.230Z,980.47
2023-04-21T08:25:39.213Z,980.57
2023-04-21T08:26:39.182Z,980.49
2023-04-21T08:27:39.177Z,980.48
2023-04-21T08:28:39.160Z,980.42
2023-04-21T08:29:39.155Z,980.42
2023-04-21T08:30:39.131Z,980.45
2023-04-21T08:31:39.322Z,980.45
2023-04-21T08:32:39.165Z,980.42
2023-04-21T08:33:46.800Z,980.44
2023-04-21T08:34:40.116Z,980.37
2023-04-21T08:35:45.170Z,980.41
2023-04-21T08:36:40.092Z,980.40
2023-04-21T08:37:39.070Z,980.42
2023-04-21T08:38:39.064Z,980.43
2023-04-21T08:39:39.027Z,980.35
2023-04-21T08:40:39.074Z,980.37
2023-04-21T08:41:39.013Z,980.41
2023-04-21T08:42:39.020Z,980.40
2023-04-21T08:43:38.998Z,980.40
2023-04-21T08:44:38.978Z,980.38
2023-04-21T08:45:39.068Z,980.37
2023-04-21T08:46:38.980Z,980.37
2023-04-21T08:47:38.954Z,980.42
2023-04-21T08:48:38.945Z,980.42
2023-04-21T08:49:38.919Z,980.34
2023-04-21T08:50:38.931Z,980.40
2023-04-21T08:51:38.920Z,980.32
2023-04-21T08:52:38.930Z,980.43
2023-04-21T08:53:38.874Z,980.29
2023-04-21T08:54:38.879Z,980.32
2023-04-21T08:55:38.866Z,980.28
2023-04-21T08:56:38.868Z,980.36
2023-04-21T08:57:38.865Z,980.32
2023-04-21T08:58:38.899Z,980.33
2023-04-21T08:59:38.817Z,980.31
2023-04-21T09:00:38.819Z,980.39
2023-04-21T09:01:38.866Z,980.33
2023-04-21T09:02:38.987Z,980.33
2023-04-21T09:03:38.918Z,980.27
2023-04-21T09:04:39.094Z,980.32
2023-04-21T09:05:42.926Z,980.30
2023-04-21T09:06:38.800Z,980.36
2023-04-21T09:07:38.747Z,980.34
2023-04-21T09:08:38.724Z,980.34
2023-04-21T09:09:38.738Z,980.33
2023-04-21T09:10:38.730Z,980.36
2023-04-21T09:11:38.718Z,980.30
2023-04-21T09:12:38.699Z,980.31
2023-04-21T09:13:38.702Z,980.30
2023-04-21T09:14:38.656Z,980.29
2023-04-21T09:15:38.654Z,980.33
2023-04-21T09:16:38.687Z,980.31
2023-04-21T09:17:38.867Z,980.26
2023-04-21T09:18:38.639Z,980.36
2023-04-21T09:19:38.623Z,980.33
2023-04-21T09:20:38.610Z,980.22
2023-04-21T09:21:38.590Z,980.23
2023-04-21T09:22:38.583Z,980.25
2023-04-21T09:23:38.590Z,980.24
2023-04-21T09:24:38.600Z,980.23
2023-04-21T09:25:38.583Z,980.21
2023-04-21T09:26:38.558Z,980.16
2023-04-21T09:27:38.590Z,980.12
2023-04-21T09:28:38.574Z,980.13
2023-04-21T09:29:38.571Z,980.12
2023-04-21T09:30:38.600Z,980.11
2023-04-21T09:31:38.553Z,980.12
2023-04-21T09:32:38.593Z,980.12
2023-04-21T09:33:49.501Z,980.16
2023-04-21T09:34:39.455Z,980.12
2023-04-21T09:35:38.458Z,980.15
2023-04-21T09:36:38.453Z,980.11
2023-04-21T09:37:38.435Z,980.13
2023-04-21T09:38:38.415Z,980.14
2023-04-21T09:39:52.778Z,980.11
2023-04-21T09:40:39.399Z,980.10
2023-04-21T09:41:38.386Z,980.15
2023-04-21T09:42:40.098Z,980.13
2023-04-21T09:43:38.388Z,980.09
2023-04-21T09:44:50.324Z,980.09
2023-04-21T09:45:40.794Z,980.13
2023-04-21T09:46:38.423Z,980.05
2023-04-21T09:47:38.377Z,980.12
2023-04-21T09:48:38.329Z,980.13
2023-04-21T09:49:38.296Z,980.09
2023-04-21T09:51:20.780Z,980.13
2023-04-21T09:52:06.037Z,980.12
2023-04-21T09:52:39.272Z,980.14
2023-04-21T09:53:38.268Z,980.22
2023-04-21T09:54:38.243Z,980.22
2023-04-21T09:55:38.253Z,980.19
2023-04-21T09:56:38.222Z,980.11
2023-04-21T09:57:38.216Z,980.19
2023-04-21T09:58:38.206Z,980.07
2023-04-21T09:59:38.240Z,980.13
2023-04-21T10:00:38.197Z,980.13
2023-04-21T10:01:38.229Z,980.12
2023-04-21T10:02:38.322Z,980.03
2023-04-21T10:03:38.361Z,980.02
2023-04-21T10:04:38.914Z,979.98
2023-04-21T10:05:40.215Z,979.99
2023-04-21T10:06:38.131Z,979.97
2023-04-21T10:07:38.120Z,979.94
2023-04-21T10:08:38.114Z,979.92
2023-04-21T10:09:38.094Z,979.93
2023-04-21T10:10:38.096Z,979.90
2023-04-21T10:11:38.068Z,979.95
2023-04-21T10:12:38.081Z,979.99
2023-04-21T10:13:38.053Z,979.89
2023-04-21T10:14:38.047Z,979.84
2023-04-21T10:15:38.023Z,979.82
2023-04-21T10:16:38.186Z,979.80
2023-04-21T10:17:38.010Z,979.80
2023-04-21T10:18:37.994Z,979.79
2023-04-21T10:19:37.987Z,979.81
2023-04-21T10:20:37.978Z,979.71
2023-04-21T10:21:37.949Z,979.74
2023-04-21T10:22:37.954Z,979.69
2023-04-21T10:23:37.968Z,979.65
2023-04-21T10:24:37.943Z,979.63
2023-04-21T10:25:37.925Z,979.62
2023-04-21T10:26:37.902Z,979.66
2023-04-21T10:27:37.998Z,979.61
2023-04-21T10:28:37.920Z,979.64
2023-04-21T10:29:52.397Z,979.60
2023-04-21T10:30:38.855Z,979.62
2023-04-21T10:31:37.919Z,979.63
2023-04-21T10:32:37.858Z,979.64
2023-04-21T10:33:37.830Z,979.66
2023-04-21T10:34:37.840Z,979.67
2023-04-21T10:35:37.824Z,979.60
2023-04-21T10:36:37.806Z,979.58
2023-04-21T10:37:37.770Z,979.60
2023-04-21T10:38:37.777Z,979.60
2023-04-21T10:39:37.788Z,979.60
2023-04-21T10:41:37.735Z,979.58
2023-04-21T10:42:37.734Z,979.58
2023-04-21T10:43:37.702Z,979.58
2023-04-21T10:44:37.701Z,979.62
2023-04-21T10:45:38.732Z,979.57
2023-04-21T10:46:37.791Z,979.55
2023-04-21T10:47:37.811Z,979.54
2023-04-21T10:48:37.683Z,979.56
2023-04-21T10:49:37.670Z,979.52
2023-04-21T10:50:39.681Z,979.50
2023-04-21T10:51:37.650Z,979.48
2023-04-21T10:52:37.657Z,979.50
2023-04-21T10:53:37.662Z,979.52
2023-04-21T10:54:37.613Z,979.45
2023-04-21T10:55:37.588Z,979.48
2023-04-21T10:56:38.766Z,979.47
2023-04-21T10:57:37.623Z,979.48
2023-04-21T10:58:37.554Z,979.53
2023-04-21T10:59:37.552Z,979.41
2023-04-21T11:00:37.583Z,979.37
2023-04-21T11:01:37.535Z,979.44
2023-04-21T11:02:40.383Z,979.43
2023-04-21T11:03:37.691Z,979.46
2023-04-21T11:04:37.762Z,979.46
2023-04-21T11:05:37.481Z,979.41
2023-04-21T11:06:37.463Z,979.37
2023-04-21T11:07:37.489Z,979.34
2023-04-21T11:08:38.248Z,979.36
2023-04-21T11:09:37.430Z,979.32
2023-04-21T11:10:37.429Z,979.30
2023-04-21T11:11:37.427Z,979.28
2023-04-21T11:12:37.390Z,979.30
2023-04-21T11:13:37.423Z,979.29
2023-04-21T11:14:37.378Z,979.29
2023-04-21T11:15:37.379Z,979.29
2023-04-21T11:16:37.382Z,979.32
2023-04-21T11:17:37.369Z,979.35
2023-04-21T11:18:37.337Z,979.34
2023-04-21T11:19:37.333Z,979.33
2023-04-21T11:20:37.319Z,979.37
2023-04-21T11:21:37.334Z,979.30
2023-04-21T11:22:37.306Z,979.29
2023-04-21T11:23:37.305Z,979.26
2023-04-21T11:24:37.293Z,979.28
2023-04-21T11:25:37.256Z,979.28
2023-04-21T11:26:37.255Z,979.33
2023-04-21T11:27:37.281Z,979.17
2023-04-21T11:28:37.244Z,979.22
2023-04-21T11:29:37.233Z,979.27
2023-04-21T11:30:37.290Z,979.22
2023-04-21T11:31:37.300Z,979.20
2023-04-21T11:32:38.510Z,979.25
2023-04-21T11:33:37.190Z,979.20
2023-04-21T11:34:37.163Z,979.20
2023-04-21T11:35:37.163Z,979.18
2023-04-21T11:36:37.137Z,979.20
2023-04-21T11:37:37.155Z,979.21
2023-04-21T11:38:37.116Z,979.16
2023-04-21T11:39:37.119Z,979.14
2023-04-21T11:40:37.114Z,979.10
2023-04-21T11:41:37.087Z,979.09
2023-04-21T11:42:37.073Z,979.11
2023-04-21T11:43:37.085Z,979.14
2023-04-21T11:44:37.053Z,979.09
2023-04-21T11:45:37.060Z,979.08
2023-04-21T11:46:37.109Z,979.08
2023-04-21T11:47:37.102Z,979.05
2023-04-21T11:48:37.021Z,979.02
2023-04-21T11:49:37.024Z,978.95
2023-04-21T11:50:36.995Z,978.96
2023-04-21T11:51:37.006Z,978.99
2023-04-21T11:52:36.994Z,978.93
2023-04-21T11:53:36.977Z,978.93
2023-04-21T11:54:36.959Z,978.91
2023-04-21T11:55:36.967Z,978.89
2023-04-21T11:56:36.953Z,978.88
2023-04-21T11:57:36.954Z,978.89
2023-04-21T11:58:36.931Z,978.84
2023-04-21T11:59:36.895Z,978.82
2023-04-21T12:00:36.906Z,978.81
2023-04-21T12:01:36.885Z,978.88
2023-04-21T12:02:37.112Z,978.90
2023-04-21T12:03:37.086Z,978.90
2023-04-21T12:04:36.980Z,978.89
2023-04-21T12:05:36.894Z,978.95
2023-04-21T12:06:36.818Z,978.88
2023-04-21T12:07:36.840Z,978.94
2023-04-21T12:08:36.804Z,978.84
2023-04-21T12:09:36.789Z,978.86
2023-04-21T12:10:36.781Z,978.84
2023-04-21T12:11:36.780Z,978.83
2023-04-21T12:12:36.775Z,978.81
2023-04-21T12:13:36.787Z,978.82
2023-04-21T12:14:36.737Z,978.76
2023-04-21T12:15:36.737Z,978.72
2023-04-21T12:16:36.795Z,978.78
2023-04-21T12:17:36.881Z,978.77
2023-04-21T12:18:36.916Z,978.71
2023-04-21T12:19:36.692Z,978.74
2023-04-21T12:20:36.678Z,978.71
2023-04-21T12:21:36.708Z,978.72
2023-04-21T12:22:36.726Z,978.67
2023-04-21T12:23:36.637Z,978.66
2023-04-21T12:24:36.879Z,978.72
2023-04-21T12:25:36.629Z,978.72
2023-04-21T12:26:36.656Z,978.71
2023-04-21T12:27:36.626Z,978.68
2023-04-21T12:28:36.632Z,978.67
2023-04-21T12:29:36.615Z,978.65